createdAt,value
2022-11-15T00:00:05.536Z,18.93
2022-11-15T00:05:22.020Z,19.70
2022-11-15T00:10:38.889Z,18.03
2022-11-15T00:15:59.513Z,20.47
2022-11-15T00:21:17.143Z,21.20
2022-11-15T00:26:33.636Z,17.03
2022-11-15T00:31:51.465Z,20.03
2022-11-15T00:37:08.510Z,20.40
2022-11-15T00:42:25.315Z,19.77
2022-11-15T00:47:45.808Z,19.10
2022-11-15T00:53:02.311Z,20.53
2022-11-15T00:58:18.898Z,15.43
2022-11-15T01:03:36.800Z,20.07
2022-11-15T01:08:53.170Z,22.10
2022-11-15T01:14:09.836Z,21.57
2022-11-15T01:19:27.743Z,20.53
2022-11-15T01:24:44.345Z,17.70
2022-11-15T01:30:00.952Z,22.30
2022-11-15T01:35:18.858Z,16.00
2022-11-15T01:40:35.450Z,19.03
2022-11-15T01:45:55.595Z,19.23
2022-11-15T01:51:16.669Z,19.20
2022-11-15T01:56:38.155Z,16.83
2022-11-15T02:01:55.176Z,17.07
2022-11-15T02:07:15.503Z,17.90
2022-11-15T02:12:32.694Z,18.83
2022-11-15T02:18:05.829Z,14.20
2022-11-15T02:23:56.005Z,15.57
2022-11-15T02:29:16.162Z,21.87
2022-11-15T02:34:44.335Z,21.97
2022-11-15T02:40:08.886Z,18.40
2022-11-15T02:45:29.925Z,16.43
2022-11-15T02:50:48.001Z,20.07
2022-11-15T02:56:05.107Z,23.37
2022-11-15T03:01:38.478Z,17.00
2022-11-15T03:07:03.960Z,17.60
2022-11-15T03:12:27.370Z,21.67
2022-11-15T03:17:49.821Z,20.40
2022-11-15T03:23:10.136Z,21.67
2022-11-15T03:28:33.698Z,17.63
2022-11-15T03:33:52.358Z,22.70
2022-11-15T03:39:13.232Z,22.77
2022-11-15T03:44:42.282Z,19.17
2022-11-15T03:50:03.194Z,12.93
2022-11-15T03:55:23.068Z,12.53
2022-11-15T04:00:39.532Z,14.63
2022-11-15T04:05:56.012Z,15.10
2022-11-15T04:11:13.893Z,12.17
2022-11-15T04:16:30.574Z,14.90
2022-11-15T04:22:04.153Z,17.03
2022-11-15T04:27:22.284Z,20.13
2022-11-15T04:32:39.110Z,17.80
2022-11-15T04:37:55.862Z,14.03
2022-11-15T04:43:13.916Z,12.90
2022-11-15T04:48:30.735Z,21.77
2022-11-15T04:53:47.300Z,20.10
2022-11-15T04:59:05.150Z,16.77
2022-11-15T05:04:22.097Z,15.10
2022-11-15T05:09:38.980Z,21.20
2022-11-15T05:14:56.765Z,16.20
2022-11-15T05:20:14.162Z,19.10
2022-11-15T05:25:30.897Z,12.00
2022-11-15T05:30:48.744Z,17.70
2022-11-15T05:36:09.712Z,18.70
2022-11-15T05:41:31.387Z,17.33
2022-11-15T05:46:50.467Z,17.83
2022-11-15T05:52:08.783Z,22.17
2022-11-15T05:57:26.381Z,12.27
2022-11-15T06:02:44.340Z,15.13
2022-11-15T06:08:00.919Z,12.17
2022-11-15T06:13:17.695Z,22.00
2022-11-15T06:18:36.544Z,16.67
2022-11-15T06:23:53.127Z,13.93
2022-11-15T06:29:09.650Z,14.30
2022-11-15T06:34:27.536Z,15.83
2022-11-15T06:39:44.253Z,19.30
2022-11-15T06:45:00.923Z,15.23
2022-11-15T06:50:19.306Z,16.80
2022-11-15T06:55:36.061Z,12.87
2022-11-15T07:00:52.588Z,19.60
2022-11-15T07:06:11.791Z,20.47
2022-11-15T07:11:28.495Z,22.20
2022-11-15T07:16:44.786Z,17.03
2022-11-15T07:22:02.472Z,13.57
2022-11-15T07:27:19.547Z,16.13
2022-11-15T07:32:36.890Z,12.67
2022-11-15T07:37:59.266Z,17.40
2022-11-15T07:43:16.218Z,14.03
2022-11-15T07:48:43.543Z,14.57
2022-11-15T07:54:02.735Z,15.17
2022-11-15T07:59:20.370Z,13.60
2022-11-15T08:04:37.124Z,16.40
2022-11-15T08:09:56.216Z,24.60
2022-11-15T08:15:12.688Z,16.17
2022-11-15T08:20:30.739Z,10.10
2022-11-15T08:25:48.800Z,10.50
2022-11-15T08:31:06.211Z,20.80
2022-11-15T08:36:22.987Z,18.67
2022-11-15T08:41:41.129Z,14.13
2022-11-15T08:46:57.912Z,12.80
2022-11-15T08:52:15.546Z,13.57
2022-11-15T08:57:33.691Z,10.97
2022-11-15T09:02:50.223Z,15.93
2022-11-15T09:08:25.523Z,11.83
2022-11-15T09:13:45.227Z,17.23
2022-11-15T09:19:02.174Z,17.70
2022-11-15T09:24:19.371Z,16.10
2022-11-15T09:29:37.867Z,12.00
2022-11-15T09:34:54.640Z,14.10
2022-11-15T09:40:17.276Z,10.73
2022-11-15T09:45:40.642Z,11.77
2022-11-15T09:51:00.794Z,15.30
2022-11-15T09:56:02.888Z,18.20
2022-11-15T10:01:08.778Z,7.87
2022-11-15T10:06:08.535Z,12.97
2022-11-15T10:17:05.395Z,7.27
2022-11-15T10:22:17.681Z,5.30
2022-11-15T10:27:17.168Z,8.43
2022-11-15T10:32:19.302Z,9.47
2022-11-15T10:37:30.067Z,8.00
2022-11-15T10:42:30.077Z,9.20
2022-11-15T10:47:37.798Z,12.03
2022-11-15T10:52:39.319Z,11.80
2022-11-15T10:57:40.119Z,12.03
2022-11-15T11:02:41.032Z,12.30
2022-11-15T11:07:39.154Z,9.43
2022-11-15T11:12:37.771Z,7.23
2022-11-15T11:17:53.368Z,7.17
2022-11-15T11:23:04.447Z,7.23
2022-11-15T11:28:23.043Z,10.40
2022-11-15T11:33:29.106Z,8.33
2022-11-15T11:38:55.852Z,7.10
2022-11-15T11:44:05.525Z,11.63
2022-11-15T11:49:10.943Z,7.77
2022-11-15T11:54:16.899Z,6.20
2022-11-15T11:59:23.341Z,8.70
2022-11-15T12:04:28.147Z,10.37
2022-11-15T12:09:34.040Z,6.57
2022-11-15T12:14:44.779Z,11.57
2022-11-15T12:19:44.744Z,9.80
2022-11-15T12:24:47.241Z,7.93
2022-11-15T12:29:49.739Z,7.90
2022-11-15T12:34:51.295Z,8.90
2022-11-15T12:40:22.389Z,5.47
2022-11-15T12:45:28.941Z,5.20
2022-11-15T12:50:57.457Z,5.77
2022-11-15T12:56:11.727Z,8.53
2022-11-15T13:01:10.029Z,6.23
2022-11-15T13:06:31.334Z,6.50
2022-11-15T13:11:53.686Z,8.37
2022-11-15T13:17:00.087Z,6.70
2022-11-15T13:22:16.119Z,8.13
2022-11-15T13:27:19.759Z,7.10
2022-11-15T13:32:18.884Z,5.40
2022-11-15T13:37:32.108Z,6.23
2022-11-15T13:42:31.653Z,7.20
2022-11-15T13:47:31.044Z,6.37
2022-11-15T13:52:33.384Z,7.90
2022-11-15T13:57:41.839Z,7.70
2022-11-15T14:02:40.247Z,5.77
2022-11-15T14:07:44.339Z,6.57
2022-11-15T14:12:52.874Z,5.57
2022-11-15T14:17:50.990Z,5.27
2022-11-15T14:22:54.738Z,8.10
2022-11-15T14:28:18.738Z,6.63
2022-11-15T14:33:25.434Z,7.00
2022-11-15T14:38:23.621Z,9.23
2022-11-15T14:43:23.370Z,11.57
2022-11-15T14:49:22.607Z,7.13
2022-11-15T14:54:20.751Z,5.27
2022-11-15T14:59:20.268Z,4.03
2022-11-15T15:04:18.377Z,6.20
2022-11-15T15:09:16.566Z,6.53
2022-11-15T15:14:16.460Z,6.73
2022-11-15T15:19:15.938Z,6.70
2022-11-15T15:24:16.780Z,9.23
2022-11-15T15:30:26.946Z,5.03
2022-11-15T15:35:29.892Z,6.73
2022-11-15T15:40:30.754Z,8.13
2022-11-15T15:45:30.467Z,6.47
2022-11-15T15:50:33.921Z,4.97
2022-11-15T15:55:32.412Z,9.20
2022-11-15T16:00:33.644Z,5.17
2022-11-15T16:05:33.149Z,8.03
2022-11-15T16:10:33.258Z,4.33
2022-11-15T16:15:33.803Z,7.00
2022-11-15T16:20:36.838Z,8.00
2022-11-15T16:25:39.634Z,6.93
2022-11-15T16:30:37.703Z,9.90
2022-11-15T16:35:37.101Z,14.90
2022-11-15T16:40:36.371Z,10.60
2022-11-15T16:52:29.984Z,6.50
2022-11-15T16:57:28.035Z,8.53
2022-11-15T17:02:26.166Z,9.83
2022-11-15T17:07:25.262Z,8.70
2022-11-15T17:12:24.761Z,5.03
2022-11-15T17:17:22.877Z,5.33
2022-11-15T17:22:21.142Z,10.67
2022-11-15T17:27:21.483Z,7.00
2022-11-15T17:32:20.967Z,7.20
2022-11-15T17:37:19.133Z,8.97
2022-11-15T17:42:17.286Z,5.97
2022-11-15T17:47:15.418Z,6.83
2022-11-15T17:52:15.054Z,8.33
2022-11-15T18:04:03.009Z,6.17
2022-11-15T18:09:03.682Z,6.50
2022-11-15T18:14:03.871Z,7.60
2022-11-15T18:19:02.236Z,7.20
2022-11-15T18:24:02.967Z,8.73
2022-11-15T18:36:02.146Z,7.33
2022-11-15T18:41:07.833Z,6.97
2022-11-15T18:46:07.224Z,11.63
2022-11-15T18:51:06.751Z,6.80
2022-11-15T18:56:08.406Z,8.37
2022-11-15T19:01:08.504Z,6.67
2022-11-15T19:06:08.348Z,7.23
2022-11-15T19:11:09.882Z,10.73
2022-11-15T19:16:09.251Z,10.13
2022-11-15T19:21:12.224Z,8.67
2022-11-15T19:26:16.007Z,5.87
2022-11-15T19:31:15.808Z,9.83
2022-11-15T19:36:15.373Z,9.70
2022-11-15T19:41:16.431Z,8.90
2022-11-15T19:46:14.913Z,7.83
2022-11-15T19:51:14.654Z,5.67
2022-11-15T19:56:16.255Z,9.97
2022-11-15T20:01:19.016Z,10.20
2022-11-15T20:06:18.986Z,11.60
2022-11-15T20:11:19.224Z,11.93
2022-11-15T20:16:19.304Z,11.20
2022-11-15T20:21:18.374Z,8.07
2022-11-15T20:26:17.928Z,10.33
2022-11-15T20:31:44.208Z,7.13
2022-11-15T20:36:42.396Z,11.60
2022-11-15T20:41:41.924Z,13.07
2022-11-15T20:46:40.128Z,10.27
2022-11-15T20:51:38.246Z,8.70
2022-11-15T20:56:36.340Z,10.60
2022-11-15T21:01:35.914Z,14.47
2022-11-15T21:06:34.083Z,8.10
2022-11-15T21:11:49.491Z,9.30
2022-11-15T21:16:49.075Z,9.13
2022-11-15T21:21:47.220Z,9.40
2022-11-15T21:26:45.381Z,8.63
2022-11-15T21:31:43.576Z,8.50
2022-11-15T21:36:43.088Z,7.80
2022-11-15T21:41:41.422Z,12.80
2022-11-15T21:46:39.559Z,9.63
2022-11-15T21:51:37.889Z,10.20
2022-11-15T21:56:37.455Z,13.23
2022-11-15T22:01:52.533Z,14.93
2022-11-15T22:06:50.868Z,10.07
2022-11-15T22:11:50.395Z,10.93
2022-11-15T22:16:48.543Z,13.93
2022-11-15T22:21:46.781Z,14.13
2022-11-15T22:26:45.046Z,13.70
2022-11-15T22:31:44.654Z,12.80
2022-11-15T22:37:13.319Z,14.63
2022-11-15T22:42:03.677Z,18.23
2022-11-15T22:47:03.541Z,18.80
2022-11-15T22:52:01.773Z,13.27
2022-11-15T22:57:00.011Z,19.13
2022-11-15T23:01:58.308Z,16.20
2022-11-15T23:06:58.067Z,18.50
2022-11-15T23:12:13.735Z,23.70
2022-11-15T23:17:12.057Z,18.20
2022-11-15T23:22:28.929Z,24.03
2022-11-15T23:27:27.407Z,16.10
2022-11-15T23:32:40.742Z,21.70
2022-11-15T23:38:37.891Z,21.60
2022-11-15T23:43:37.554Z,21.87
2022-11-15T23:48:35.990Z,22.27
2022-11-15T23:53:34.451Z,18.03
2022-11-15T23:58:33.441Z,15.97
